sensor_id;sensor_type;location;lat;lon;timestamp;P1;durP1;ratioP1;P2;durP2;ratioP2
14015;SDS011;7083;48.854;9.158;2022-07-06T00:01:14;4.97;;;2.80;;
14015;SDS011;7083;48.854;9.158;2022-07-06T00:03:42;1.97;;;1.87;;
14015;SDS011;7083;48.854;9.158;2022-07-06T00:06:08;2.00;;;1.63;;
14015;SDS011;7083;48.854;9.158;2022-07-06T00:08:35;1.50;;;1.50;;
14015;SDS011;7083;48.854;9.158;2022-07-06T00:11:02;1.90;;;1.80;;
14015;SDS011;7083;48.854;9.158;2022-07-06T00:13:30;2.43;;;1.80;;
14015;SDS011;7083;48.854;9.158;2022-07-06T00:15:57;4.30;;;1.70;;
14015;SDS011;7083;48.854;9.158;2022-07-06T00:18:24;2.23;;;2.13;;
14015;SDS011;7083;48.854;9.158;2022-07-06T00:20:51;1.90;;;1.80;;
14015;SDS011;7083;48.854;9.158;2022-07-06T00:23:17;2.57;;;2.00;;
14015;SDS011;7083;48.854;9.158;2022-07-06T00:25:44;1.90;;;1.80;;
14015;SDS011;7083;48.854;9.158;2022-07-06T00:28:11;2.97;;;1.83;;
14015;SDS011;7083;48.854;9.158;2022-07-06T00:30:39;1.87;;;1.80;;
14015;SDS011;7083;48.854;9.158;2022-07-06T00:33:06;2.67;;;2.03;;
14015;SDS011;7083;48.854;9.158;2022-07-06T00:35:33;1.80;;;1.63;;
14015;SDS011;7083;48.854;9.158;2022-07-06T00:38:00;1.90;;;1.80;;
14015;SDS011;7083;48.854;9.158;2022-07-06T00:40:27;1.80;;;1.70;;
14015;SDS011;7083;48.854;9.158;2022-07-06T00:42:54;1.73;;;1.63;;
14015;SDS011;7083;48.854;9.158;2022-07-06T00:45:22;1.70;;;1.70;;
14015;SDS011;7083;48.854;9.158;2022-07-06T00:47:50;2.43;;;2.23;;
14015;SDS011;7083;48.854;9.158;2022-07-06T00:50:17;1.87;;;1.77;;
14015;SDS011;7083;48.854;9.158;2022-07-06T00:52:46;2.47;;;2.27;;
14015;SDS011;7083;48.854;9.158;2022-07-06T00:55:16;5.43;;;2.60;;
14015;SDS011;7083;48.854;9.158;2022-07-06T00:57:44;2.30;;;2.07;;
14015;SDS011;7083;48.854;9.158;2022-07-06T01:00:12;2.17;;;2.07;;
14015;SDS011;7083;48.854;9.158;2022-07-06T01:02:41;2.40;;;2.20;;
14015;SDS011;7083;48.854;9.158;2022-07-06T01:05:10;1.90;;;1.50;;
14015;SDS011;7083;48.854;9.158;2022-07-06T01:07:39;4.30;;;1.87;;
14015;SDS011;7083;48.854;9.158;2022-07-06T01:10:08;2.40;;;1.93;;
14015;SDS011;7083;48.854;9.158;2022-07-06T01:12:36;1.80;;;1.70;;
14015;SDS011;7083;48.854;9.158;2022-07-06T01:15:04;1.60;;;1.60;;
14015;SDS011;7083;48.854;9.158;2022-07-06T01:17:34;1.83;;;1.73;;
14015;SDS011;7083;48.854;9.158;2022-07-06T01:20:08;1.40;;;1.40;;
14015;SDS011;7083;48.854;9.158;2022-07-06T01:22:35;2.57;;;2.10;;
14015;SDS011;7083;48.854;9.158;2022-07-06T01:25:02;2.20;;;2.10;;
14015;SDS011;7083;48.854;9.158;2022-07-06T01:27:30;1.70;;;1.60;;
14015;SDS011;7083;48.854;9.158;2022-07-06T01:29:56;1.63;;;1.53;;
14015;SDS011;7083;48.854;9.158;2022-07-06T01:32:24;1.60;;;1.60;;
14015;SDS011;7083;48.854;9.158;2022-07-06T01:34:51;3.43;;;1.87;;
14015;SDS011;7083;48.854;9.158;2022-07-06T01:37:19;1.90;;;1.80;;
14015;SDS011;7083;48.854;9.158;2022-07-06T01:39:45;3.20;;;1.43;;
14015;SDS011;7083;48.854;9.158;2022-07-06T01:42:12;1.97;;;1.73;;
14015;SDS011;7083;48.854;9.158;2022-07-06T01:44:39;1.90;;;1.80;;
14015;SDS011;7083;48.854;9.158;2022-07-06T01:47:06;5.00;;;2.10;;
14015;SDS011;7083;48.854;9.158;2022-07-06T01:49:33;3.07;;;2.10;;
14015;SDS011;7083;48.854;9.158;2022-07-06T01:51:59;2.17;;;1.90;;
14015;SDS011;7083;48.854;9.158;2022-07-06T01:54:27;2.90;;;1.83;;
14015;SDS011;7083;48.854;9.158;2022-07-06T01:56:54;2.10;;;1.90;;
14015;SDS011;7083;48.854;9.158;2022-07-06T01:59:21;1.53;;;1.43;;
14015;SDS011;7083;48.854;9.158;2022-07-06T02:01:47;2.10;;;1.60;;
14015;SDS011;7083;48.854;9.158;2022-07-06T02:04:14;1.70;;;1.60;;
14015;SDS011;7083;48.854;9.158;2022-07-06T02:06:41;3.47;;;2.67;;
14015;SDS011;7083;48.854;9.158;2022-07-06T02:09:07;1.90;;;1.73;;
14015;SDS011;7083;48.854;9.158;2022-07-06T02:11:35;1.37;;;1.27;;
14015;SDS011;7083;48.854;9.158;2022-07-06T02:14:02;3.23;;;2.30;;
14015;SDS011;7083;48.854;9.158;2022-07-06T02:16:29;2.27;;;1.97;;
14015;SDS011;7083;48.854;9.158;2022-07-06T02:18:55;1.53;;;1.50;;
14015;SDS011;7083;48.854;9.158;2022-07-06T02:21:22;3.00;;;2.30;;
14015;SDS011;7083;48.854;9.158;2022-07-06T02:23:49;2.93;;;1.97;;
14015;SDS011;7083;48.854;9.158;2022-07-06T02:26:16;2.47;;;2.27;;
14015;SDS011;7083;48.854;9.158;2022-07-06T02:28:44;2.20;;;2.00;;
14015;SDS011;7083;48.854;9.158;2022-07-06T02:31:12;4.60;;;2.07;;
14015;SDS011;7083;48.854;9.158;2022-07-06T02:33:39;2.57;;;2.13;;
14015;SDS011;7083;48.854;9.158;2022-07-06T02:36:05;2.77;;;2.10;;
14015;SDS011;7083;48.854;9.158;2022-07-06T02:38:32;2.50;;;2.10;;
14015;SDS011;7083;48.854;9.158;2022-07-06T02:40:59;2.10;;;2.00;;
14015;SDS011;7083;48.854;9.158;2022-07-06T02:43:26;3.87;;;1.80;;
14015;SDS011;7083;48.854;9.158;2022-07-06T02:45:54;2.50;;;2.27;;
14015;SDS011;7083;48.854;9.158;2022-07-06T02:48:21;2.23;;;2.00;;
14015;SDS011;7083;48.854;9.158;2022-07-06T02:50:47;2.10;;;1.90;;
14015;SDS011;7083;48.854;9.158;2022-07-06T02:53:14;2.60;;;2.27;;
14015;SDS011;7083;48.854;9.158;2022-07-06T02:55:41;4.43;;;2.27;;
14015;SDS011;7083;48.854;9.158;2022-07-06T02:58:07;1.83;;;1.63;;
14015;SDS011;7083;48.854;9.158;2022-07-06T03:00:34;2.60;;;2.40;;
14015;SDS011;7083;48.854;9.158;2022-07-06T03:03:02;2.40;;;2.20;;
14015;SDS011;7083;48.854;9.158;2022-07-06T03:05:29;3.57;;;2.10;;
14015;SDS011;7083;48.854;9.158;2022-07-06T03:07:55;2.63;;;2.10;;
14015;SDS011;7083;48.854;9.158;2022-07-06T03:10:22;2.57;;;2.03;;
14015;SDS011;7083;48.854;9.158;2022-07-06T03:12:49;2.73;;;2.00;;
14015;SDS011;7083;48.854;9.158;2022-07-06T03:15:15;2.57;;;2.37;;
14015;SDS011;7083;48.854;9.158;2022-07-06T03:17:42;2.60;;;2.33;;
14015;SDS011;7083;48.854;9.158;2022-07-06T03:20:10;3.50;;;3.07;;
14015;SDS011;7083;48.854;9.158;2022-07-06T03:22:38;2.83;;;2.63;;
14015;SDS011;7083;48.854;9.158;2022-07-06T03:25:05;2.43;;;2.23;;
14015;SDS011;7083;48.854;9.158;2022-07-06T03:27:32;2.30;;;2.20;;
14015;SDS011;7083;48.854;9.158;2022-07-06T03:30:00;3.97;;;2.43;;
14015;SDS011;7083;48.854;9.158;2022-07-06T03:32:28;2.13;;;2.03;;
14015;SDS011;7083;48.854;9.158;2022-07-06T03:34:56;2.00;;;1.90;;
14015;SDS011;7083;48.854;9.158;2022-07-06T03:37:24;2.27;;;2.13;;
14015;SDS011;7083;48.854;9.158;2022-07-06T03:39:51;2.53;;;2.20;;
14015;SDS011;7083;48.854;9.158;2022-07-06T03:42:18;2.30;;;2.20;;
14015;SDS011;7083;48.854;9.158;2022-07-06T03:44:44;2.87;;;2.77;;
14015;SDS011;7083;48.854;9.158;2022-07-06T03:47:11;2.43;;;2.33;;
14015;SDS011;7083;48.854;9.158;2022-07-06T03:49:38;2.20;;;2.00;;
14015;SDS011;7083;48.854;9.158;2022-07-06T03:52:05;2.50;;;1.80;;
14015;SDS011;7083;48.854;9.158;2022-07-06T03:54:33;3.53;;;2.60;;
14015;SDS011;7083;48.854;9.158;2022-07-06T03:56:59;2.87;;;2.27;;
14015;SDS011;7083;48.854;9.158;2022-07-06T03:59:26;3.43;;;3.13;;
14015;SDS011;7083;48.854;9.158;2022-07-06T04:01:53;3.60;;;2.73;;
14015;SDS011;7083;48.854;9.158;2022-07-06T04:04:19;3.23;;;3.03;;
14015;SDS011;7083;48.854;9.158;2022-07-06T04:06:46;3.23;;;2.83;;
14015;SDS011;7083;48.854;9.158;2022-07-06T04:09:13;2.53;;;2.43;;
14015;SDS011;7083;48.854;9.158;2022-07-06T04:11:41;2.27;;;2.17;;
14015;SDS011;7083;48.854;9.158;2022-07-06T04:14:07;5.03;;;3.20;;
14015;SDS011;7083;48.854;9.158;2022-07-06T04:16:34;3.20;;;3.00;;
14015;SDS011;7083;48.854;9.158;2022-07-06T04:19:01;4.23;;;2.97;;
14015;SDS011;7083;48.854;9.158;2022-07-06T04:21:27;5.33;;;3.20;;
14015;SDS011;7083;48.854;9.158;2022-07-06T04:23:54;3.20;;;3.00;;
14015;SDS011;7083;48.854;9.158;2022-07-06T04:26:21;3.90;;;3.47;;
14015;SDS011;7083;48.854;9.158;2022-07-06T04:28:49;3.10;;;2.67;;
14015;SDS011;7083;48.854;9.158;2022-07-06T04:31:16;2.87;;;2.67;;
14015;SDS011;7083;48.854;9.158;2022-07-06T04:33:43;3.10;;;2.90;;
14015;SDS011;7083;48.854;9.158;2022-07-06T04:36:10;3.70;;;2.80;;
14015;SDS011;7083;48.854;9.158;2022-07-06T04:38:36;4.43;;;3.13;;
14015;SDS011;7083;48.854;9.158;2022-07-06T04:41:03;2.70;;;2.50;;
14015;SDS011;7083;48.854;9.158;2022-07-06T04:43:30;3.27;;;2.97;;
14015;SDS011;7083;48.854;9.158;2022-07-06T04:45:58;3.60;;;3.30;;
14015;SDS011;7083;48.854;9.158;2022-07-06T04:48:25;3.50;;;3.30;;
14015;SDS011;7083;48.854;9.158;2022-07-06T04:50:52;3.20;;;2.90;;
14015;SDS011;7083;48.854;9.158;2022-07-06T04:53:20;3.07;;;2.83;;
14015;SDS011;7083;48.854;9.158;2022-07-06T04:55:46;3.60;;;2.90;;
14015;SDS011;7083;48.854;9.158;2022-07-06T04:58:13;4.40;;;3.20;;
14015;SDS011;7083;48.854;9.158;2022-07-06T05:00:39;3.73;;;2.80;;
14015;SDS011;7083;48.854;9.158;2022-07-06T05:03:07;4.43;;;3.40;;
14015;SDS011;7083;48.854;9.158;2022-07-06T05:05:34;2.90;;;2.70;;
14015;SDS011;7083;48.854;9.158;2022-07-06T05:08:01;6.73;;;3.47;;
14015;SDS011;7083;48.854;9.158;2022-07-06T05:10:28;3.17;;;2.87;;
14015;SDS011;7083;48.854;9.158;2022-07-06T05:12:56;3.70;;;3.40;;
14015;SDS011;7083;48.854;9.158;2022-07-06T05:15:22;3.37;;;3.07;;
14015;SDS011;7083;48.854;9.158;2022-07-06T05:17:49;2.83;;;2.50;;
14015;SDS011;7083;48.854;9.158;2022-07-06T05:20:17;3.27;;;2.97;;
14015;SDS011;7083;48.854;9.158;2022-07-06T05:22:44;3.63;;;3.20;;
14015;SDS011;7083;48.854;9.158;2022-07-06T05:25:11;2.60;;;2.50;;
14015;SDS011;7083;48.854;9.158;2022-07-06T05:27:37;3.50;;;3.20;;
14015;SDS011;7083;48.854;9.158;2022-07-06T05:30:05;3.03;;;2.80;;
14015;SDS011;7083;48.854;9.158;2022-07-06T05:32:32;3.90;;;3.07;;
14015;SDS011;7083;48.854;9.158;2022-07-06T05:34:59;3.07;;;2.70;;
14015;SDS011;7083;48.854;9.158;2022-07-06T05:37:27;2.73;;;2.53;;
14015;SDS011;7083;48.854;9.158;2022-07-06T05:39:53;4.60;;;2.80;;
14015;SDS011;7083;48.854;9.158;2022-07-06T05:42:20;3.17;;;2.97;;
14015;SDS011;7083;48.854;9.158;2022-07-06T05:44:46;3.90;;;2.50;;
14015;SDS011;7083;48.854;9.158;2022-07-06T05:47:13;2.53;;;2.33;;
14015;SDS011;7083;48.854;9.158;2022-07-06T05:49:57;4.60;;;2.73;;
14015;SDS011;7083;48.854;9.158;2022-07-06T05:52:41;4.83;;;2.80;;
14015;SDS011;7083;48.854;9.158;2022-07-06T05:55:08;3.40;;;2.73;;
14015;SDS011;7083;48.854;9.158;2022-07-06T05:57:35;2.43;;;2.23;;
14015;SDS011;7083;48.854;9.158;2022-07-06T06:00:02;4.67;;;2.80;;
14015;SDS011;7083;48.854;9.158;2022-07-06T06:02:36;5.30;;;2.80;;
14015;SDS011;7083;48.854;9.158;2022-07-06T06:05:03;2.80;;;2.60;;
14015;SDS011;7083;48.854;9.158;2022-07-06T06:07:32;3.83;;;3.10;;
14015;SDS011;7083;48.854;9.158;2022-07-06T06:10:01;5.03;;;2.63;;
14015;SDS011;7083;48.854;9.158;2022-07-06T06:12:28;2.60;;;2.20;;
14015;SDS011;7083;48.854;9.158;2022-07-06T06:14:55;2.40;;;2.23;;
14015;SDS011;7083;48.854;9.158;2022-07-06T06:17:21;3.30;;;2.97;;
14015;SDS011;7083;48.854;9.158;2022-07-06T06:19:48;2.63;;;2.47;;
14015;SDS011;7083;48.854;9.158;2022-07-06T06:22:15;2.50;;;2.03;;
14015;SDS011;7083;48.854;9.158;2022-07-06T06:24:41;2.20;;;2.10;;
14015;SDS011;7083;48.854;9.158;2022-07-06T06:27:09;2.70;;;2.10;;
14015;SDS011;7083;48.854;9.158;2022-07-06T06:29:36;2.63;;;2.50;;
14015;SDS011;7083;48.854;9.158;2022-07-06T06:32:03;3.60;;;2.60;;
14015;SDS011;7083;48.854;9.158;2022-07-06T06:34:30;2.00;;;1.90;;
14015;SDS011;7083;48.854;9.158;2022-07-06T06:36:57;3.00;;;1.90;;
14015;SDS011;7083;48.854;9.158;2022-07-06T06:39:24;6.63;;;2.57;;
14015;SDS011;7083;48.854;9.158;2022-07-06T06:41:51;3.17;;;2.80;;
14015;SDS011;7083;48.854;9.158;2022-07-06T06:44:23;4.47;;;2.00;;
14015;SDS011;7083;48.854;9.158;2022-07-06T06:46:59;2.47;;;2.00;;
14015;SDS011;7083;48.854;9.158;2022-07-06T06:49:25;5.47;;;2.57;;
14015;SDS011;7083;48.854;9.158;2022-07-06T06:51:52;2.40;;;2.20;;
14015;SDS011;7083;48.854;9.158;2022-07-06T06:54:19;3.93;;;2.97;;
14015;SDS011;7083;48.854;9.158;2022-07-06T06:56:45;2.97;;;2.57;;
14015;SDS011;7083;48.854;9.158;2022-07-06T06:59:12;2.77;;;2.47;;
14015;SDS011;7083;48.854;9.158;2022-07-06T07:01:40;2.57;;;2.37;;
14015;SDS011;7083;48.854;9.158;2022-07-06T07:04:07;6.37;;;2.43;;
14015;SDS011;7083;48.854;9.158;2022-07-06T07:06:34;3.47;;;1.83;;
14015;SDS011;7083;48.854;9.158;2022-07-06T07:09:00;3.30;;;2.60;;
14015;SDS011;7083;48.854;9.158;2022-07-06T07:11:27;3.40;;;2.57;;
14015;SDS011;7083;48.854;9.158;2022-07-06T07:13:54;4.43;;;2.27;;
14015;SDS011;7083;48.854;9.158;2022-07-06T07:16:20;4.20;;;2.60;;
14015;SDS011;7083;48.854;9.158;2022-07-06T07:18:50;5.40;;;2.60;;
14015;SDS011;7083;48.854;9.158;2022-07-06T07:21:17;2.10;;;2.00;;
14015;SDS011;7083;48.854;9.158;2022-07-06T07:23:43;2.43;;;2.33;;
14015;SDS011;7083;48.854;9.158;2022-07-06T07:26:10;2.77;;;2.53;;
14015;SDS011;7083;48.854;9.158;2022-07-06T07:28:37;2.63;;;2.40;;
14015;SDS011;7083;48.854;9.158;2022-07-06T07:31:04;2.67;;;2.47;;
14015;SDS011;7083;48.854;9.158;2022-07-06T07:33:31;3.53;;;2.20;;
14015;SDS011;7083;48.854;9.158;2022-07-06T07:35:59;4.43;;;2.47;;
14015;SDS011;7083;48.854;9.158;2022-07-06T07:38:26;4.20;;;2.20;;
14015;SDS011;7083;48.854;9.158;2022-07-06T07:40:52;2.50;;;2.30;;
14015;SDS011;7083;48.854;9.158;2022-07-06T07:43:19;2.17;;;2.07;;
14015;SDS011;7083;48.854;9.158;2022-07-06T07:45:46;2.13;;;2.03;;
14015;SDS011;7083;48.854;9.158;2022-07-06T07:48:14;2.20;;;2.00;;
14015;SDS011;7083;48.854;9.158;2022-07-06T07:50:41;2.50;;;2.30;;
14015;SDS011;7083;48.854;9.158;2022-07-06T07:53:09;2.60;;;1.90;;
14015;SDS011;7083;48.854;9.158;2022-07-06T07:55:36;3.20;;;2.37;;
14015;SDS011;7083;48.854;9.158;2022-07-06T07:58:02;1.80;;;1.70;;
14015;SDS011;7083;48.854;9.158;2022-07-06T08:00:29;1.93;;;1.83;;
14015;SDS011;7083;48.854;9.158;2022-07-06T08:02:56;2.17;;;1.90;;
14015;SDS011;7083;48.854;9.158;2022-07-06T08:05:22;4.00;;;1.97;;
14015;SDS011;7083;48.854;9.158;2022-07-06T08:07:49;2.40;;;2.20;;
14015;SDS011;7083;48.854;9.158;2022-07-06T08:10:17;2.97;;;2.63;;
14015;SDS011;7083;48.854;9.158;2022-07-06T08:12:44;1.97;;;1.83;;
14015;SDS011;7083;48.854;9.158;2022-07-06T08:15:11;5.27;;;2.27;;
14015;SDS011;7083;48.854;9.158;2022-07-06T08:17:37;2.20;;;2.03;;
14015;SDS011;7083;48.854;9.158;2022-07-06T08:20:05;2.90;;;2.40;;
14015;SDS011;7083;48.854;9.158;2022-07-06T08:22:34;3.27;;;2.30;;
14015;SDS011;7083;48.854;9.158;2022-07-06T08:25:01;2.30;;;2.10;;
14015;SDS011;7083;48.854;9.158;2022-07-06T08:27:29;3.13;;;2.10;;
14015;SDS011;7083;48.854;9.158;2022-07-06T08:29:56;2.63;;;2.13;;
14015;SDS011;7083;48.854;9.158;2022-07-06T08:32:23;2.53;;;2.33;;
14015;SDS011;7083;48.854;9.158;2022-07-06T08:34:49;2.27;;;2.07;;
14015;SDS011;7083;48.854;9.158;2022-07-06T08:37:16;1.97;;;1.77;;
14015;SDS011;7083;48.854;9.158;2022-07-06T08:39:43;2.17;;;2.07;;
14015;SDS011;7083;48.854;9.158;2022-07-06T08:42:10;2.10;;;1.90;;
14015;SDS011;7083;48.854;9.158;2022-07-06T08:44:39;2.40;;;2.20;;
14015;SDS011;7083;48.854;9.158;2022-07-06T08:47:06;2.13;;;1.90;;
14015;SDS011;7083;48.854;9.158;2022-07-06T08:49:33;2.10;;;2.00;;
14015;SDS011;7083;48.854;9.158;2022-07-06T08:52:02;5.03;;;2.17;;
14015;SDS011;7083;48.854;9.158;2022-07-06T08:54:30;2.43;;;2.23;;
14015;SDS011;7083;48.854;9.158;2022-07-06T08:56:57;3.27;;;2.60;;
14015;SDS011;7083;48.854;9.158;2022-07-06T08:59:25;1.80;;;1.70;;
14015;SDS011;7083;48.854;9.158;2022-07-06T09:01:54;2.70;;;1.87;;
14015;SDS011;7083;48.854;9.158;2022-07-06T09:04:21;2.50;;;2.20;;
14015;SDS011;7083;48.854;9.158;2022-07-06T09:06:48;3.10;;;2.00;;
14015;SDS011;7083;48.854;9.158;2022-07-06T09:09:18;4.03;;;2.10;;
14015;SDS011;7083;48.854;9.158;2022-07-06T09:11:46;3.87;;;2.40;;
14015;SDS011;7083;48.854;9.158;2022-07-06T09:14:13;6.03;;;2.30;;
14015;SDS011;7083;48.854;9.158;2022-07-06T09:16:40;2.17;;;2.00;;
14015;SDS011;7083;48.854;9.158;2022-07-06T09:19:09;2.70;;;2.50;;
14015;SDS011;7083;48.854;9.158;2022-07-06T09:21:37;3.93;;;2.83;;
14015;SDS011;7083;48.854;9.158;2022-07-06T09:24:06;4.50;;;2.47;;
14015;SDS011;7083;48.854;9.158;2022-07-06T09:26:34;2.40;;;2.10;;
14015;SDS011;7083;48.854;9.158;2022-07-06T09:29:01;2.30;;;2.20;;
14015;SDS011;7083;48.854;9.158;2022-07-06T09:31:28;2.60;;;1.80;;
14015;SDS011;7083;48.854;9.158;2022-07-06T09:33:56;2.57;;;2.47;;
14015;SDS011;7083;48.854;9.158;2022-07-06T09:36:39;3.50;;;2.67;;
14015;SDS011;7083;48.854;9.158;2022-07-06T09:39:17;3.00;;;2.80;;
14015;SDS011;7083;48.854;9.158;2022-07-06T09:41:46;2.33;;;1.93;;
14015;SDS011;7083;48.854;9.158;2022-07-06T09:44:17;2.20;;;2.00;;
14015;SDS011;7083;48.854;9.158;2022-07-06T09:46:46;2.97;;;1.80;;
14015;SDS011;7083;48.854;9.158;2022-07-06T09:49:16;5.77;;;2.70;;
14015;SDS011;7083;48.854;9.158;2022-07-06T09:51:45;2.10;;;2.00;;
14015;SDS011;7083;48.854;9.158;2022-07-06T09:54:12;5.97;;;2.60;;
14015;SDS011;7083;48.854;9.158;2022-07-06T09:56:40;2.13;;;1.93;;
14015;SDS011;7083;48.854;9.158;2022-07-06T09:59:09;3.73;;;2.77;;
14015;SDS011;7083;48.854;9.158;2022-07-06T10:01:37;3.27;;;2.67;;
14015;SDS011;7083;48.854;9.158;2022-07-06T10:04:04;2.43;;;2.33;;
14015;SDS011;7083;48.854;9.158;2022-07-06T10:06:31;6.87;;;2.60;;
14015;SDS011;7083;48.854;9.158;2022-07-06T10:09:00;3.17;;;2.00;;
14015;SDS011;7083;48.854;9.158;2022-07-06T10:11:28;2.13;;;1.93;;
14015;SDS011;7083;48.854;9.158;2022-07-06T10:13:56;2.40;;;2.20;;
14015;SDS011;7083;48.854;9.158;2022-07-06T10:16:23;3.33;;;2.57;;
14015;SDS011;7083;48.854;9.158;2022-07-06T10:18:51;2.23;;;2.03;;
14015;SDS011;7083;48.854;9.158;2022-07-06T10:21:20;3.50;;;1.83;;
14015;SDS011;7083;48.854;9.158;2022-07-06T10:23:47;4.67;;;2.90;;
14015;SDS011;7083;48.854;9.158;2022-07-06T10:26:17;3.83;;;2.40;;
14015;SDS011;7083;48.854;9.158;2022-07-06T10:28:44;2.40;;;2.20;;
14015;SDS011;7083;48.854;9.158;2022-07-06T10:31:13;3.30;;;1.97;;
14015;SDS011;7083;48.854;9.158;2022-07-06T10:33:40;4.03;;;2.40;;
14015;SDS011;7083;48.854;9.158;2022-07-06T10:36:08;4.00;;;2.70;;
14015;SDS011;7083;48.854;9.158;2022-07-06T10:38:35;4.07;;;2.57;;
14015;SDS011;7083;48.854;9.158;2022-07-06T10:41:02;2.43;;;2.27;;
14015;SDS011;7083;48.854;9.158;2022-07-06T10:43:34;8.03;;;2.10;;
14015;SDS011;7083;48.854;9.158;2022-07-06T10:46:07;2.20;;;1.60;;
14015;SDS011;7083;48.854;9.158;2022-07-06T10:48:35;2.10;;;1.90;;
14015;SDS011;7083;48.854;9.158;2022-07-06T10:51:03;2.07;;;1.97;;
14015;SDS011;7083;48.854;9.158;2022-07-06T10:53:31;2.33;;;2.13;;
14015;SDS011;7083;48.854;9.158;2022-07-06T10:56:00;2.50;;;2.00;;
14015;SDS011;7083;48.854;9.158;2022-07-06T11:01:18;3.10;;;1.63;;
14015;SDS011;7083;48.854;9.158;2022-07-06T11:03:46;5.93;;;2.23;;
14015;SDS011;7083;48.854;9.158;2022-07-06T11:06:14;1.93;;;1.83;;
14015;SDS011;7083;48.854;9.158;2022-07-06T11:08:46;4.73;;;2.13;;
14015;SDS011;7083;48.854;9.158;2022-07-06T11:11:18;2.90;;;1.53;;
14015;SDS011;7083;48.854;9.158;2022-07-06T11:13:48;3.83;;;2.03;;
14015;SDS011;7083;48.854;9.158;2022-07-06T11:16:18;2.20;;;1.80;;
14015;SDS011;7083;48.854;9.158;2022-07-06T11:18:46;5.63;;;2.40;;
14015;SDS011;7083;48.854;9.158;2022-07-06T11:21:14;4.20;;;2.37;;
14015;SDS011;7083;48.854;9.158;2022-07-06T11:23:45;2.63;;;2.43;;
14015;SDS011;7083;48.854;9.158;2022-07-06T11:26:13;3.73;;;2.43;;
14015;SDS011;7083;48.854;9.158;2022-07-06T11:28:41;3.37;;;1.93;;
14015;SDS011;7083;48.854;9.158;2022-07-06T11:31:08;9.00;;;2.23;;
14015;SDS011;7083;48.854;9.158;2022-07-06T11:33:36;2.53;;;2.07;;
14015;SDS011;7083;48.854;9.158;2022-07-06T11:38:50;5.77;;;2.73;;
14015;SDS011;7083;48.854;9.158;2022-07-06T11:41:17;3.77;;;2.40;;
14015;SDS011;7083;48.854;9.158;2022-07-06T11:43:45;4.93;;;2.70;;
14015;SDS011;7083;48.854;9.158;2022-07-06T11:46:19;2.30;;;2.03;;
14015;SDS011;7083;48.854;9.158;2022-07-06T11:48:52;2.23;;;2.00;;
14015;SDS011;7083;48.854;9.158;2022-07-06T11:51:20;6.60;;;2.73;;
14015;SDS011;7083;48.854;9.158;2022-07-06T11:53:48;2.83;;;2.10;;
14015;SDS011;7083;48.854;9.158;2022-07-06T11:56:17;4.15;;;1.80;;
14015;SDS011;7083;48.854;9.158;2022-07-06T11:58:46;2.33;;;2.10;;
14015;SDS011;7083;48.854;9.158;2022-07-06T12:01:15;4.67;;;2.23;;
14015;SDS011;7083;48.854;9.158;2022-07-06T12:03:42;3.70;;;2.30;;
14015;SDS011;7083;48.854;9.158;2022-07-06T12:06:15;3.67;;;1.87;;
14015;SDS011;7083;48.854;9.158;2022-07-06T12:08:43;2.33;;;2.10;;
14015;SDS011;7083;48.854;9.158;2022-07-06T12:11:16;2.77;;;2.23;;
14015;SDS011;7083;48.854;9.158;2022-07-06T12:13:44;3.13;;;1.73;;
14015;SDS011;7083;48.854;9.158;2022-07-06T12:16:12;2.47;;;1.93;;
14015;SDS011;7083;48.854;9.158;2022-07-06T12:18:40;3.33;;;1.87;;
14015;SDS011;7083;48.854;9.158;2022-07-06T12:21:08;7.40;;;2.33;;
14015;SDS011;7083;48.854;9.158;2022-07-06T12:23:44;5.13;;;2.27;;
14015;SDS011;7083;48.854;9.158;2022-07-06T12:26:12;2.30;;;2.10;;
14015;SDS011;7083;48.854;9.158;2022-07-06T12:28:41;3.47;;;1.90;;
14015;SDS011;7083;48.854;9.158;2022-07-06T12:31:08;2.37;;;2.17;;
14015;SDS011;7083;48.854;9.158;2022-07-06T12:33:37;2.13;;;1.80;;
14015;SDS011;7083;48.854;9.158;2022-07-06T12:36:10;2.93;;;1.93;;
14015;SDS011;7083;48.854;9.158;2022-07-06T12:38:44;2.13;;;1.30;;
14015;SDS011;7083;48.854;9.158;2022-07-06T12:41:28;2.53;;;2.33;;
14015;SDS011;7083;48.854;9.158;2022-07-06T12:44:00;3.47;;;1.97;;
14015;SDS011;7083;48.854;9.158;2022-07-06T12:46:29;1.50;;;1.40;;
14015;SDS011;7083;48.854;9.158;2022-07-06T12:48:57;2.43;;;1.80;;
14015;SDS011;7083;48.854;9.158;2022-07-06T12:51:25;4.07;;;2.20;;
14015;SDS011;7083;48.854;9.158;2022-07-06T12:53:56;3.53;;;1.65;;
14015;SDS011;7083;48.854;9.158;2022-07-06T12:59:39;2.10;;;1.20;;
14015;SDS011;7083;48.854;9.158;2022-07-06T13:02:07;1.98;;;1.35;;
14015;SDS011;7083;48.854;9.158;2022-07-06T13:04:35;2.45;;;1.38;;
14015;SDS011;7083;48.854;9.158;2022-07-06T13:07:03;2.70;;;1.90;;
14015;SDS011;7083;48.854;9.158;2022-07-06T13:09:32;3.30;;;1.80;;
14015;SDS011;7083;48.854;9.158;2022-07-06T13:11:59;2.13;;;1.33;;
14015;SDS011;7083;48.854;9.158;2022-07-06T13:14:26;4.43;;;1.30;;
14015;SDS011;7083;48.854;9.158;2022-07-06T13:16:53;1.77;;;1.30;;
14015;SDS011;7083;48.854;9.158;2022-07-06T13:19:20;1.80;;;1.60;;
14015;SDS011;7083;48.854;9.158;2022-07-06T13:21:47;4.15;;;1.45;;
14015;SDS011;7083;48.854;9.158;2022-07-06T13:24:14;2.00;;;1.65;;
14015;SDS011;7083;48.854;9.158;2022-07-06T13:26:42;2.58;;;1.20;;
14015;SDS011;7083;48.854;9.158;2022-07-06T13:29:09;2.58;;;0.95;;
14015;SDS011;7083;48.854;9.158;2022-07-06T13:31:37;1.55;;;1.10;;
14015;SDS011;7083;48.854;9.158;2022-07-06T13:34:05;1.65;;;1.02;;
14015;SDS011;7083;48.854;9.158;2022-07-06T13:36:32;1.90;;;1.10;;
14015;SDS011;7083;48.854;9.158;2022-07-06T13:38:59;6.40;;;2.15;;
14015;SDS011;7083;48.854;9.158;2022-07-06T13:41:25;1.45;;;1.35;;
14015;SDS011;7083;48.854;9.158;2022-07-06T13:43:53;2.13;;;1.20;;
14015;SDS011;7083;48.854;9.158;2022-07-06T13:46:20;2.40;;;1.40;;
14015;SDS011;7083;48.854;9.158;2022-07-06T13:48:47;2.88;;;1.13;;
14015;SDS011;7083;48.854;9.158;2022-07-06T13:51:14;2.65;;;1.35;;
14015;SDS011;7083;48.854;9.158;2022-07-06T13:53:40;2.13;;;1.40;;
14015;SDS011;7083;48.854;9.158;2022-07-06T13:56:07;1.70;;;1.17;;
14015;SDS011;7083;48.854;9.158;2022-07-06T13:58:34;5.38;;;1.80;;
14015;SDS011;7083;48.854;9.158;2022-07-06T14:01:03;2.80;;;1.25;;
14015;SDS011;7083;48.854;9.158;2022-07-06T14:03:30;2.10;;;1.17;;
14015;SDS011;7083;48.854;9.158;2022-07-06T14:05:57;1.30;;;1.20;;
14015;SDS011;7083;48.854;9.158;2022-07-06T14:08:25;3.83;;;0.90;;
14015;SDS011;7083;48.854;9.158;2022-07-06T14:10:52;1.30;;;1.20;;
14015;SDS011;7083;48.854;9.158;2022-07-06T14:13:19;2.58;;;0.82;;
14015;SDS011;7083;48.854;9.158;2022-07-06T14:15:46;1.35;;;1.05;;
14015;SDS011;7083;48.854;9.158;2022-07-06T14:18:15;2.45;;;1.30;;
14015;SDS011;7083;48.854;9.158;2022-07-06T14:20:42;1.35;;;1.25;;
14015;SDS011;7083;48.854;9.158;2022-07-06T14:23:10;2.38;;;1.38;;
14015;SDS011;7083;48.854;9.158;2022-07-06T14:25:37;2.38;;;1.25;;
14015;SDS011;7083;48.854;9.158;2022-07-06T14:28:04;4.13;;;1.00;;
14015;SDS011;7083;48.854;9.158;2022-07-06T14:30:31;5.13;;;1.25;;
14015;SDS011;7083;48.854;9.158;2022-07-06T14:32:58;5.55;;;1.48;;
14015;SDS011;7083;48.854;9.158;2022-07-06T14:35:26;1.65;;;1.05;;
14015;SDS011;7083;48.854;9.158;2022-07-06T14:37:52;1.27;;;1.15;;
14015;SDS011;7083;48.854;9.158;2022-07-06T14:40:19;1.23;;;0.95;;
14015;SDS011;7083;48.854;9.158;2022-07-06T14:42:46;1.85;;;0.90;;
14015;SDS011;7083;48.854;9.158;2022-07-06T14:45:12;1.00;;;0.90;;
14015;SDS011;7083;48.854;9.158;2022-07-06T14:47:39;3.50;;;1.02;;
14015;SDS011;7083;48.854;9.158;2022-07-06T14:50:06;5.53;;;1.10;;
14015;SDS011;7083;48.854;9.158;2022-07-06T14:52:34;2.67;;;1.00;;
14015;SDS011;7083;48.854;9.158;2022-07-06T14:55:01;2.35;;;0.77;;
14015;SDS011;7083;48.854;9.158;2022-07-06T14:57:28;1.08;;;1.08;;
14015;SDS011;7083;48.854;9.158;2022-07-06T14:59:55;2.80;;;1.02;;
14015;SDS011;7083;48.854;9.158;2022-07-06T15:02:22;1.48;;;1.20;;
14015;SDS011;7083;48.854;9.158;2022-07-06T15:04:49;0.77;;;0.77;;
14015;SDS011;7083;48.854;9.158;2022-07-06T15:07:15;1.75;;;0.88;;
14015;SDS011;7083;48.854;9.158;2022-07-06T15:09:44;2.00;;;1.17;;
14015;SDS011;7083;48.854;9.158;2022-07-06T15:12:10;3.40;;;1.05;;